createdAt,value
2023-04-05T00:00:58.678Z,13.15
2023-04-05T00:03:26.131Z,13.32
2023-04-05T00:05:54.696Z,13.02
2023-04-05T00:08:24.269Z,15.25
2023-04-05T00:10:51.005Z,14.00
2023-04-05T00:13:17.733Z,10.93
2023-04-05T00:15:44.607Z,13.40
2023-04-05T00:18:21.657Z,11.55
2023-04-05T00:20:49.908Z,11.95
2023-04-05T00:23:17.814Z,16.40
2023-04-05T00:25:45.379Z,12.88
2023-04-05T00:28:12.671Z,10.52
2023-04-05T00:30:40.769Z,9.75
2023-04-05T00:33:07.661Z,12.65
2023-04-05T00:35:34.534Z,11.52
2023-04-05T00:38:01.313Z,12.60
2023-04-05T00:40:28.180Z,11.30
2023-04-05T00:42:54.901Z,12.95
2023-04-05T00:45:21.743Z,13.23
2023-04-05T00:47:48.675Z,14.48
2023-04-05T00:50:19.322Z,11.70
2023-04-05T00:52:46.906Z,15.20
2023-04-05T00:55:14.262Z,11.57
2023-04-05T00:57:41.371Z,10.55
2023-04-05T01:00:09.573Z,13.10
2023-04-05T01:02:46.154Z,10.32
2023-04-05T01:05:26.920Z,11.23
2023-04-05T01:08:21.046Z,10.75
2023-04-05T01:10:55.037Z,10.75
2023-04-05T01:13:22.920Z,12.68
2023-04-05T01:15:49.702Z,11.57
2023-04-05T01:18:16.574Z,9.68
2023-04-05T01:20:53.725Z,11.88
2023-04-05T01:23:45.431Z,9.25
2023-04-05T01:26:51.873Z,10.00
2023-04-05T01:29:46.414Z,9.45
2023-04-05T01:32:42.027Z,13.05
2023-04-05T01:35:26.956Z,12.65
2023-04-05T01:37:59.581Z,8.20
2023-04-05T01:40:27.250Z,9.82
2023-04-05T01:42:54.007Z,8.60
2023-04-05T01:45:20.827Z,12.63
2023-04-05T01:47:47.604Z,11.50
2023-04-05T01:50:14.515Z,9.40
2023-04-05T01:52:41.251Z,10.90
2023-04-05T01:55:08.306Z,9.40
2023-04-05T01:57:35.271Z,12.40
2023-04-05T02:00:02.029Z,12.25
2023-04-05T02:02:28.832Z,10.93
2023-04-05T02:04:55.739Z,11.82
2023-04-05T02:07:22.538Z,9.85
2023-04-05T02:09:49.254Z,10.90
2023-04-05T02:12:16.052Z,9.10
2023-04-05T02:14:42.741Z,9.25
2023-04-05T02:17:09.520Z,8.30
2023-04-05T02:19:41.057Z,10.95
2023-04-05T02:22:08.992Z,11.73
2023-04-05T02:24:36.008Z,10.63
2023-04-05T02:27:02.887Z,10.93
2023-04-05T02:29:29.790Z,9.75
2023-04-05T02:31:56.739Z,10.60
2023-04-05T02:34:23.620Z,9.43
2023-04-05T02:36:51.553Z,10.43
2023-04-05T02:39:18.530Z,11.35
2023-04-05T02:41:46.033Z,10.40
2023-04-05T02:44:13.760Z,9.85
2023-04-05T02:46:40.794Z,9.77
2023-04-05T02:49:07.619Z,10.75
2023-04-05T02:51:34.570Z,10.40
2023-04-05T02:54:04.339Z,10.80
2023-04-05T02:56:31.047Z,9.23
2023-04-05T02:58:57.897Z,10.75
2023-04-05T03:01:24.996Z,11.50
2023-04-05T03:03:51.892Z,10.77
2023-04-05T03:06:20.758Z,8.98
2023-04-05T03:08:49.103Z,9.68
2023-04-05T03:11:16.276Z,11.85
2023-04-05T03:16:17.430Z,11.13
2023-04-05T03:18:44.194Z,13.02
2023-04-05T03:21:11.484Z,11.10
2023-04-05T03:23:38.638Z,11.60
2023-04-05T03:26:06.373Z,10.15
2023-04-05T03:28:33.243Z,8.75
2023-04-05T03:31:00.055Z,10.63
2023-04-05T03:33:26.939Z,9.10
2023-04-05T03:35:53.715Z,13.80
2023-04-05T03:38:20.629Z,9.32
2023-04-05T03:40:47.456Z,10.10
2023-04-05T03:43:14.158Z,11.05
2023-04-05T03:45:41.209Z,10.40
2023-04-05T03:48:08.167Z,13.48
2023-04-05T03:50:37.830Z,10.02
2023-04-05T03:53:04.608Z,11.00
2023-04-05T03:55:32.048Z,11.20
2023-04-05T03:57:58.853Z,13.18
2023-04-05T04:00:25.571Z,9.63
2023-04-05T04:02:52.829Z,10.25
2023-04-05T04:05:21.396Z,9.05
2023-04-05T04:07:48.526Z,10.00
2023-04-05T04:10:20.004Z,11.18
2023-04-05T04:12:46.791Z,9.48
2023-04-05T04:15:13.579Z,9.30
2023-04-05T04:17:40.463Z,9.38
2023-04-05T04:20:11.442Z,12.18
2023-04-05T04:22:40.450Z,9.25
2023-04-05T04:25:12.714Z,8.75
2023-04-05T04:27:42.165Z,12.77
2023-04-05T04:30:10.918Z,10.40
2023-04-05T04:32:52.025Z,9.48
2023-04-05T04:35:26.558Z,9.65
2023-04-05T04:38:03.823Z,9.98
2023-04-05T04:40:46.588Z,9.93
2023-04-05T04:43:17.469Z,9.38
2023-04-05T04:45:48.813Z,9.85
2023-04-05T04:48:16.994Z,10.80
2023-04-05T04:50:44.787Z,10.05
2023-04-05T04:53:13.642Z,10.68
2023-04-05T04:55:43.343Z,12.50
2023-04-05T04:58:11.824Z,9.88
2023-04-05T05:00:44.464Z,11.15
2023-04-05T05:03:12.253Z,10.68
2023-04-05T05:05:46.967Z,11.73
2023-04-05T05:08:14.660Z,12.70
2023-04-05T05:10:41.938Z,12.15
2023-04-05T05:13:09.427Z,11.45
2023-04-05T05:15:36.367Z,10.90
2023-04-05T05:18:03.480Z,10.95
2023-04-05T05:20:30.326Z,10.30
2023-04-05T05:22:58.561Z,8.82
2023-04-05T05:25:26.104Z,9.00
2023-04-05T05:27:53.039Z,11.75
2023-04-05T05:30:21.034Z,11.25
2023-04-05T05:32:48.530Z,9.95
2023-04-05T05:35:15.320Z,15.52
2023-04-05T05:37:42.091Z,10.93
2023-04-05T05:40:09.998Z,12.00
2023-04-05T05:42:36.782Z,12.45
2023-04-05T05:45:05.132Z,17.88
2023-04-05T05:47:32.566Z,12.70
2023-04-05T05:49:59.355Z,12.60
2023-04-05T05:52:26.356Z,9.07
2023-04-05T05:54:53.102Z,11.80
2023-04-05T05:57:20.818Z,12.52
2023-04-05T05:59:47.584Z,10.93
2023-04-05T06:02:14.789Z,10.45
2023-04-05T06:04:42.154Z,9.15
2023-04-05T06:07:09.011Z,11.85
2023-04-05T06:09:35.928Z,9.70
2023-04-05T06:12:03.045Z,9.88
2023-04-05T06:14:30.013Z,10.27
2023-04-05T06:16:56.961Z,11.10
2023-04-05T06:19:23.939Z,10.05
2023-04-05T06:21:50.849Z,9.30
2023-04-05T06:24:17.650Z,9.63
2023-04-05T06:26:44.378Z,9.45
2023-04-05T06:29:11.357Z,9.73
2023-04-05T06:31:38.273Z,8.63
2023-04-05T06:34:05.204Z,7.28
2023-04-05T06:36:34.030Z,10.38
2023-04-05T06:39:01.360Z,11.05
2023-04-05T06:41:28.217Z,10.40
2023-04-05T06:43:56.143Z,13.27
2023-04-05T06:50:11.291Z,13.38
2023-04-05T06:52:39.620Z,16.05
2023-04-05T06:55:07.852Z,15.57
2023-04-05T06:57:35.047Z,17.70
2023-04-05T07:00:01.852Z,13.13
2023-04-05T07:02:28.635Z,11.10
2023-04-05T07:05:00.674Z,10.90
2023-04-05T07:07:27.481Z,9.38
2023-04-05T07:09:54.307Z,10.05
2023-04-05T07:12:21.103Z,10.13
2023-04-05T07:14:47.826Z,10.32
2023-04-05T07:17:14.560Z,8.20
2023-04-05T07:19:41.473Z,8.48
2023-04-05T07:22:08.389Z,9.07
2023-04-05T07:24:35.606Z,9.15
2023-04-05T07:27:03.056Z,10.35
2023-04-05T07:29:29.948Z,11.85
2023-04-05T07:31:56.928Z,9.45
2023-04-05T07:34:23.683Z,10.15
2023-04-05T07:36:50.664Z,7.18
2023-04-05T07:39:18.261Z,10.02
2023-04-05T07:41:45.059Z,7.72
2023-04-05T07:44:11.756Z,12.55
2023-04-05T07:46:39.390Z,11.07
2023-04-05T07:49:06.641Z,7.70
2023-04-05T07:51:36.296Z,9.35
2023-04-05T07:54:03.666Z,11.15
2023-04-05T07:56:30.981Z,11.40
2023-04-05T07:58:59.003Z,9.32
2023-04-05T08:01:28.961Z,8.32
2023-04-05T08:03:58.831Z,9.18
2023-04-05T08:06:27.378Z,9.85
2023-04-05T08:08:54.197Z,7.43
2023-04-05T08:11:21.575Z,8.82
2023-04-05T08:13:48.559Z,8.07
2023-04-05T08:16:15.582Z,10.88
2023-04-05T08:18:48.621Z,8.13
2023-04-05T08:21:15.387Z,9.05
2023-04-05T08:23:42.293Z,6.75
2023-04-05T08:26:09.109Z,8.52
2023-04-05T08:28:36.540Z,8.60
2023-04-05T08:41:42.546Z,9.38
2023-04-05T08:44:10.756Z,7.10
2023-04-05T08:49:33.421Z,9.40
2023-04-05T08:52:03.347Z,6.35
2023-04-05T08:58:00.993Z,7.05
2023-04-05T09:01:04.344Z,8.52
2023-04-05T09:11:05.279Z,8.00
2023-04-05T09:13:38.476Z,6.53
2023-04-05T09:16:10.599Z,10.13
2023-04-05T09:22:56.907Z,6.90
2023-04-05T09:25:32.787Z,5.97
2023-04-05T09:32:45.697Z,7.43
2023-04-05T09:35:59.405Z,5.95
2023-04-05T09:38:46.350Z,7.70
2023-04-05T09:41:13.219Z,5.97
2023-04-05T09:43:41.427Z,7.47
2023-04-05T09:46:29.974Z,8.60
2023-04-05T09:48:57.417Z,5.80
2023-04-05T09:51:24.196Z,7.65
2023-04-05T09:54:05.525Z,7.00
2023-04-05T09:56:35.933Z,4.45
2023-04-05T09:59:07.246Z,7.05
2023-04-05T10:01:34.514Z,6.97
2023-04-05T10:04:02.619Z,7.32
2023-04-05T10:06:41.135Z,9.02
2023-04-05T10:09:09.346Z,5.32
2023-04-05T10:11:38.086Z,5.25
2023-04-05T10:14:07.693Z,5.20
2023-04-05T10:16:51.332Z,6.28
2023-04-05T10:19:31.220Z,7.25
2023-04-05T10:22:02.561Z,5.90
2023-04-05T10:24:45.699Z,5.03
2023-04-05T10:27:23.562Z,7.00
2023-04-05T10:30:04.335Z,6.65
2023-04-05T10:33:03.549Z,6.07
2023-04-05T10:35:54.775Z,6.18
2023-04-05T10:38:29.255Z,6.80
2023-04-05T10:41:05.778Z,5.57
2023-04-05T10:43:35.631Z,6.28
2023-04-05T10:46:03.515Z,6.07
2023-04-05T10:48:54.723Z,6.97
2023-04-05T10:51:26.789Z,4.63
2023-04-05T10:56:22.449Z,5.88
2023-04-05T10:58:50.799Z,8.88
2023-04-05T11:01:18.882Z,8.00
2023-04-05T11:03:48.522Z,6.13
2023-04-05T11:06:32.578Z,8.07
2023-04-05T11:09:12.606Z,6.93
2023-04-05T11:11:41.167Z,6.15
2023-04-05T11:14:21.910Z,5.75
2023-04-05T11:16:53.394Z,6.57
2023-04-05T11:19:20.783Z,7.28
2023-04-05T11:21:47.690Z,7.30
2023-04-05T11:24:16.833Z,5.85
2023-04-05T11:26:43.481Z,8.27
2023-04-05T11:29:11.250Z,8.15
2023-04-05T11:31:59.427Z,8.38
2023-04-05T11:34:26.241Z,5.80
2023-04-05T11:36:53.052Z,5.45
2023-04-05T11:39:22.709Z,7.00
2023-04-05T11:42:04.201Z,6.15
2023-04-05T11:44:41.278Z,6.13
2023-04-05T11:47:09.157Z,6.72
2023-04-05T11:49:39.141Z,9.40
2023-04-05T11:52:14.690Z,6.07
2023-04-05T11:54:46.263Z,6.82
2023-04-05T11:57:16.141Z,5.65
2023-04-05T11:59:43.491Z,5.25
2023-04-05T12:02:10.392Z,5.32
2023-04-05T12:04:38.384Z,5.45
2023-04-05T12:07:19.589Z,6.72
2023-04-05T12:09:59.872Z,4.72
2023-04-05T12:12:26.767Z,5.78
2023-04-05T12:14:59.546Z,4.50
2023-04-05T12:17:42.300Z,6.32
2023-04-05T12:20:10.298Z,9.05
2023-04-05T12:22:38.223Z,6.55
2023-04-05T12:25:05.769Z,7.95
2023-04-05T12:27:32.689Z,5.63
2023-04-05T12:30:17.498Z,5.55
2023-04-05T12:32:52.946Z,4.97
2023-04-05T12:35:32.722Z,6.95
2023-04-05T12:38:00.957Z,6.85
2023-04-05T12:43:05.311Z,4.85
2023-04-05T12:45:40.239Z,6.22
2023-04-05T12:48:15.729Z,7.47
2023-04-05T12:50:52.147Z,4.60
2023-04-05T12:53:22.265Z,4.72
2023-04-05T12:55:53.870Z,4.88
2023-04-05T12:58:23.177Z,5.90
2023-04-05T13:00:49.961Z,6.55
2023-04-05T13:03:20.639Z,5.80
2023-04-05T13:05:48.867Z,5.88
2023-04-05T13:08:18.489Z,5.30
2023-04-05T13:10:46.643Z,4.90
2023-04-05T13:13:22.693Z,6.53
2023-04-05T13:15:51.542Z,5.18
2023-04-05T13:22:26.459Z,5.65
2023-04-05T13:24:54.075Z,5.50
2023-04-05T13:27:24.133Z,4.65
2023-04-05T13:29:50.938Z,5.65
2023-04-05T13:32:17.727Z,5.55
2023-04-05T13:34:44.501Z,10.88
2023-04-05T13:37:11.344Z,5.72
2023-04-05T13:39:38.439Z,5.35
2023-04-05T13:42:05.892Z,6.75
2023-04-05T13:44:32.762Z,5.57
2023-04-05T13:46:59.506Z,6.22
2023-04-05T13:49:26.226Z,5.32
2023-04-05T13:51:52.941Z,4.72
2023-04-05T13:54:19.712Z,5.90
2023-04-05T13:56:46.450Z,5.57
2023-04-05T13:59:16.569Z,5.18
2023-04-05T14:01:43.741Z,5.80
2023-04-05T14:04:11.098Z,4.78
2023-04-05T14:06:38.412Z,4.80
2023-04-05T14:09:05.697Z,6.78
2023-04-05T14:11:32.817Z,5.75
2023-04-05T14:14:00.034Z,5.57
2023-04-05T14:16:38.718Z,4.47
2023-04-05T14:19:05.740Z,4.60
2023-04-05T14:29:45.895Z,4.82
2023-04-05T14:32:50.230Z,6.30
2023-04-05T14:43:06.287Z,5.43
2023-04-05T14:49:26.036Z,5.90
2023-04-05T15:04:38.740Z,4.80
2023-04-05T15:15:37.539Z,5.07
2023-04-05T15:21:51.960Z,5.78
2023-04-05T15:25:48.683Z,6.55
2023-04-05T15:28:59.657Z,6.32
2023-04-05T15:31:28.169Z,6.68
2023-04-05T15:33:59.637Z,6.00
2023-04-05T15:36:32.482Z,6.25
2023-04-05T15:39:02.451Z,6.05
2023-04-05T15:41:31.651Z,6.63
2023-04-05T15:44:04.194Z,7.22
2023-04-05T15:46:45.741Z,5.25
2023-04-05T16:44:19.437Z,6.03
2023-04-05T16:46:47.191Z,5.57
2023-04-05T16:49:15.868Z,9.35
2023-04-05T16:51:42.856Z,5.72
2023-04-05T16:54:09.681Z,8.13
2023-04-05T17:00:06.273Z,9.43
2023-04-05T17:02:36.037Z,7.07
2023-04-05T17:05:06.434Z,6.38
2023-04-05T17:07:33.842Z,7.85
2023-04-05T17:10:09.263Z,6.38
2023-04-05T17:12:40.639Z,5.60
2023-04-05T17:15:09.845Z,6.73
2023-04-05T17:17:37.580Z,8.45
2023-04-05T17:20:05.359Z,7.55
2023-04-05T17:22:32.729Z,5.43
2023-04-05T17:24:59.836Z,7.30
2023-04-05T17:27:26.738Z,10.93
2023-04-05T17:29:53.605Z,10.38
2023-04-05T17:32:20.922Z,11.50
2023-04-05T17:34:48.276Z,12.57
2023-04-05T17:37:15.885Z,8.05
2023-04-05T17:39:43.265Z,7.70
2023-04-05T17:42:11.727Z,6.97
2023-04-05T17:44:39.447Z,10.35
2023-04-05T17:47:09.662Z,8.07
2023-04-05T17:49:37.910Z,9.93
2023-04-05T17:52:08.859Z,5.45
2023-04-05T17:54:39.170Z,8.38
2023-04-05T17:57:07.332Z,7.05
2023-04-05T17:59:35.673Z,9.63
2023-04-05T18:02:03.705Z,11.15
2023-04-05T18:04:30.965Z,11.77
2023-04-05T18:07:00.022Z,10.30
2023-04-05T18:09:28.236Z,10.70
2023-04-05T18:11:57.062Z,7.47
2023-04-05T18:14:24.027Z,7.53
2023-04-05T18:16:51.198Z,8.90
2023-04-05T18:19:19.119Z,9.57
2023-04-05T18:21:46.697Z,9.38
2023-04-05T18:24:15.556Z,6.05
2023-04-05T18:26:43.014Z,11.43
2023-04-05T18:29:10.203Z,14.50
2023-04-05T18:31:37.846Z,7.10
2023-04-05T18:34:08.475Z,8.38
2023-04-05T18:36:36.569Z,9.05
2023-04-05T18:39:04.022Z,7.78
2023-04-05T18:41:31.594Z,7.03
2023-04-05T18:43:59.319Z,7.55
2023-04-05T18:46:26.667Z,6.43
2023-04-05T18:48:57.970Z,7.70
2023-04-05T18:51:26.705Z,8.48
2023-04-05T18:53:56.249Z,11.05
2023-04-05T18:56:23.538Z,9.32
2023-04-05T18:58:51.971Z,7.93
2023-04-05T19:01:20.766Z,7.07
2023-04-05T19:03:48.553Z,11.05
2023-04-05T19:06:16.769Z,7.82
2023-04-05T19:08:44.887Z,7.60
2023-04-05T19:11:13.913Z,8.95
2023-04-05T19:13:42.519Z,9.50
2023-04-05T19:16:10.149Z,7.60
2023-04-05T19:18:37.539Z,9.48
2023-04-05T19:21:05.434Z,13.32
2023-04-05T19:23:33.489Z,8.40
2023-04-05T19:26:01.224Z,9.68
2023-04-05T19:28:28.367Z,12.68
2023-04-05T19:30:55.318Z,15.38
2023-04-05T19:33:22.492Z,10.65
2023-04-05T19:35:49.577Z,11.52
2023-04-05T19:38:16.681Z,12.82
2023-04-05T19:40:44.606Z,11.27
2023-04-05T19:43:13.216Z,13.93
2023-04-05T19:45:40.397Z,12.35
2023-04-05T19:48:37.341Z,14.75
2023-04-05T19:51:07.148Z,15.82
2023-04-05T19:53:49.569Z,19.80
2023-04-05T19:56:28.450Z,18.45
2023-04-05T19:58:59.488Z,18.02
2023-04-05T20:01:31.696Z,18.27
2023-04-05T20:06:28.366Z,14.63
2023-04-05T20:09:00.325Z,16.13
2023-04-05T20:11:29.024Z,12.65
2023-04-05T20:13:58.382Z,17.75
2023-04-05T20:16:30.311Z,17.58
2023-04-05T20:19:04.941Z,16.70
2023-04-05T20:21:32.839Z,15.52
2023-04-05T20:24:01.310Z,19.17
2023-04-05T20:26:35.174Z,19.20
2023-04-05T20:29:04.082Z,17.35
2023-04-05T20:31:33.854Z,14.93
2023-04-05T20:34:14.940Z,17.67
2023-04-05T20:36:50.759Z,13.35
2023-04-05T20:39:56.220Z,16.42
2023-04-05T20:42:22.997Z,14.50
2023-04-05T20:44:49.727Z,15.93
2023-04-05T20:47:37.107Z,14.90
2023-04-05T20:50:04.686Z,15.82
2023-04-05T20:56:09.198Z,11.52
2023-04-05T21:02:21.183Z,11.75
2023-04-05T21:04:50.443Z,9.18
2023-04-05T21:07:17.651Z,11.98
2023-04-05T21:09:44.434Z,10.73
2023-04-05T21:12:11.302Z,14.60
2023-04-05T21:14:38.016Z,14.02
2023-04-05T21:17:04.716Z,11.68
2023-04-05T21:19:31.727Z,12.93
2023-04-05T21:22:40.699Z,24.23
2023-04-05T21:25:35.045Z,15.63
2023-04-05T21:28:03.546Z,11.75
2023-04-05T21:30:30.965Z,11.32
2023-04-05T21:32:57.837Z,9.70
2023-04-05T21:35:24.724Z,12.57
2023-04-05T21:37:51.494Z,12.13
2023-04-05T21:40:18.692Z,11.55
2023-04-05T21:42:46.006Z,9.25
2023-04-05T21:45:13.164Z,13.68
2023-04-05T21:47:40.407Z,15.15
2023-04-05T21:50:08.223Z,11.90
2023-04-05T21:52:36.452Z,11.82
2023-04-05T21:55:04.309Z,9.77
2023-04-05T21:57:33.697Z,10.43
2023-04-05T22:00:09.500Z,11.35
2023-04-05T22:02:36.675Z,12.68
2023-04-05T22:05:05.398Z,11.63
2023-04-05T22:07:32.231Z,13.30
2023-04-05T22:09:59.074Z,11.25
2023-04-05T22:12:26.063Z,12.48
2023-04-05T22:14:52.825Z,11.00
2023-04-05T22:17:19.691Z,11.05
2023-04-05T22:19:47.550Z,9.88
2023-04-05T22:22:15.099Z,12.30
2023-04-05T22:24:42.668Z,12.73
2023-04-05T22:27:09.922Z,13.80
2023-04-05T22:29:37.191Z,11.85
2023-04-05T22:32:04.204Z,20.33
2023-04-05T22:34:34.006Z,11.18
2023-04-05T22:37:01.103Z,14.80
2023-04-05T22:39:27.953Z,11.60
2023-04-05T22:41:55.105Z,11.93
2023-04-05T22:44:22.099Z,11.18
2023-04-05T22:46:48.811Z,14.05
2023-04-05T22:49:15.556Z,15.07
2023-04-05T22:51:42.303Z,18.00
2023-04-05T22:54:09.083Z,13.98
2023-04-05T22:56:36.007Z,13.65
2023-04-05T22:59:02.787Z,14.75
2023-04-05T23:01:29.608Z,13.77
2023-04-05T23:03:56.511Z,17.40
2023-04-05T23:06:25.014Z,17.27
2023-04-05T23:09:24.344Z,15.73
2023-04-05T23:11:51.656Z,15.45
2023-04-05T23:14:18.452Z,13.10
2023-04-05T23:16:45.408Z,13.18
2023-04-05T23:19:12.485Z,13.20
2023-04-05T23:21:39.308Z,11.73
2023-04-05T23:24:06.531Z,11.40
2023-04-05T23:26:35.685Z,11.43
2023-04-05T23:29:04.018Z,12.88
2023-04-05T23:31:31.351Z,13.38
2023-04-05T23:33:58.301Z,13.18
2023-04-05T23:36:25.273Z,10.32
2023-04-05T23:38:52.650Z,11.05
2023-04-05T23:41:19.706Z,14.32
2023-04-05T23:43:49.430Z,16.42
2023-04-05T23:46:16.585Z,17.55
2023-04-05T23:48:43.467Z,13.55
2023-04-05T23:51:10.368Z,13.98
2023-04-05T23:53:37.282Z,12.57
2023-04-05T23:56:04.429Z,12.52
2023-04-05T23:58:31.527Z,13.50
